Main page
METAR-TAF:

METAR-TAF

Airports :

S.t James Municipal Airport

St. James, Minnesota, United States

latitude: 43-59-11N, longitude: 094-33-29W, elevation: 1066 ft

Current weather observation

The report was made 29 minutes ago, at 10:55 UTC
Calm wind
Temperature 70°F
Humidity 100%
Pressure 29.87 in. Hg
Visibility: 8 miles
Clear sky

METAR: KJYG 141055Z AUTO 00000KT 8SM CLR 21/21 A2987 RMK AO2

Time: 06:24 (11:24 UTC)


TAF: missing

Weather observations and forecasts of more than 4000 airports (METAR and TAF reports).

The available stations are represented by yellow and red dots on the map.

Hover mouse over dot to see the name of the station.

Then click to see weather observations and forecasts.

To change the map : click on the green buttons with a black cross to zoom in, on the green button with a dash to zoom out, or on the green arrows for adjacent maps.


METAR-TAF: